createdAt,value
2022-10-10T00:00:34.456Z,-23510.16
2022-10-10T00:02:37.259Z,-23510.16
2022-10-10T00:04:39.947Z,-23511.91
2022-10-10T00:06:43.961Z,-23512.72
2022-10-10T00:08:46.767Z,-23512.38
2022-10-10T00:10:49.381Z,-23511.75
2022-10-10T00:12:52.687Z,-23509.69
2022-10-10T00:14:55.453Z,-23512.38
2022-10-10T00:16:58.094Z,-23513.50
2022-10-10T00:19:00.701Z,-23512.38
2022-10-10T00:21:03.353Z,-23512.53
2022-10-10T00:23:08.021Z,-23512.72
2022-10-10T00:25:11.636Z,-23514.28
2022-10-10T00:27:14.389Z,-23516.81
2022-10-10T00:29:17.003Z,-23515.72
2022-10-10T00:31:19.828Z,-23516.34
2022-10-10T00:33:22.715Z,-23516.97
2022-10-10T00:35:25.333Z,-23514.75
2022-10-10T00:37:28.334Z,-23513.50
2022-10-10T00:39:32.302Z,-23511.28
2022-10-10T00:41:34.928Z,-23511.59
2022-10-10T00:43:37.740Z,-23511.44
2022-10-10T00:45:42.399Z,-23510.50
2022-10-10T00:47:45.029Z,-23515.06
2022-10-10T00:49:47.676Z,-23511.44
2022-10-10T00:51:54.054Z,-23510.31
2022-10-10T00:53:59.076Z,-23510.00
2022-10-10T00:56:04.467Z,-23509.38
2022-10-10T00:58:09.021Z,-23508.75
2022-10-10T01:00:12.319Z,-23510.00
2022-10-10T01:02:14.894Z,-23508.59
2022-10-10T01:04:32.620Z,-23507.00
2022-10-10T01:06:35.535Z,-23506.22
2022-10-10T01:08:38.685Z,-23506.84
2022-10-10T01:10:54.960Z,-23505.72
2022-10-10T01:13:10.285Z,-23502.72
2022-10-10T01:15:20.237Z,-23503.69
2022-10-10T01:17:31.167Z,-23503.19
2022-10-10T01:20:11.201Z,-23504.94
2022-10-10T01:22:26.299Z,-23508.09
2022-10-10T01:24:56.359Z,-23509.06
2022-10-10T01:27:19.403Z,-23508.09
2022-10-10T01:29:29.959Z,-23510.81
2022-10-10T01:31:36.949Z,-23509.84
2022-10-10T01:33:50.077Z,-23513.19
2022-10-10T01:35:56.330Z,-23514.28
2022-10-10T01:38:06.947Z,-23512.84
2022-10-10T01:40:18.828Z,-23510.66
2022-10-10T01:42:28.587Z,-23511.28
2022-10-10T01:44:32.537Z,-23513.19
2022-10-10T01:46:35.219Z,-23513.50
2022-10-10T01:48:38.252Z,-23511.59
2022-10-10T01:50:52.571Z,-23512.53
2022-10-10T01:53:09.793Z,-23510.50
2022-10-10T01:55:29.452Z,-23510.97
2022-10-10T01:57:42.146Z,-23509.69
2022-10-10T01:59:59.057Z,-23510.16
2022-10-10T02:02:09.662Z,-23511.28
2022-10-10T02:04:18.480Z,-23512.22
2022-10-10T02:06:26.681Z,-23512.84
2022-10-10T02:08:34.574Z,-23512.53
2022-10-10T02:10:41.105Z,-23512.53
2022-10-10T02:12:44.476Z,-23512.84
2022-10-10T02:14:52.873Z,-23513.34
2022-10-10T02:16:58.920Z,-23515.06
2022-10-10T02:19:06.656Z,-23514.13
2022-10-10T02:21:10.523Z,-23512.22
2022-10-10T02:23:16.722Z,-23510.31
2022-10-10T02:25:24.674Z,-23509.69
2022-10-10T02:27:33.304Z,-23509.38
2022-10-10T02:29:39.523Z,-23511.75
2022-10-10T02:31:46.968Z,-23510.97
2022-10-10T02:33:53.036Z,-23510.16
2022-10-10T02:35:55.931Z,-23508.09
2022-10-10T02:38:00.371Z,-23509.38
2022-10-10T02:40:04.988Z,-23508.75
2022-10-10T02:42:09.701Z,-23507.78
2022-10-10T02:44:13.690Z,-23511.91
2022-10-10T02:46:16.509Z,-23508.91
2022-10-10T02:48:20.575Z,-23506.22
2022-10-10T02:50:23.688Z,-23507.94
2022-10-10T02:52:26.372Z,-23505.41
2022-10-10T02:54:29.147Z,-23513.19
2022-10-10T02:56:31.747Z,-23510.31
2022-10-10T02:58:34.314Z,-23510.31
2022-10-10T03:00:36.925Z,-23509.38
2022-10-10T03:02:39.565Z,-23509.38
2022-10-10T03:04:44.816Z,-23509.22
2022-10-10T03:06:47.649Z,-23510.00
2022-10-10T03:08:50.327Z,-23508.75
2022-10-10T03:10:57.151Z,-23510.00
2022-10-10T03:12:59.769Z,-23511.28
2022-10-10T03:15:02.501Z,-23511.59
2022-10-10T03:17:05.129Z,-23510.66
2022-10-10T03:19:08.706Z,-23511.91
2022-10-10T03:21:12.752Z,-23509.69
2022-10-10T03:23:15.393Z,-23507.78
2022-10-10T03:25:18.144Z,-23505.91
2022-10-10T03:27:20.789Z,-23505.56
2022-10-10T03:29:23.519Z,-23505.41
2022-10-10T03:31:26.138Z,-23504.78
2022-10-10T03:33:28.682Z,-23504.00
2022-10-10T03:35:31.330Z,-23503.03
2022-10-10T03:37:35.284Z,-23504.16
2022-10-10T03:39:37.877Z,-23503.84
2022-10-10T03:41:40.495Z,-23502.88
2022-10-10T03:43:43.086Z,-23501.13
2022-10-10T03:45:47.530Z,-23502.72
2022-10-10T03:47:50.996Z,-23502.25
2022-10-10T03:49:53.599Z,-23504.31
2022-10-10T03:51:56.275Z,-23502.41
2022-10-10T03:54:00.343Z,-23503.69
2022-10-10T03:56:02.983Z,-23499.88
2022-10-10T03:58:05.572Z,-23499.25
2022-10-10T04:00:09.560Z,-23501.13
2022-10-10T04:02:12.152Z,-23499.88
2022-10-10T04:04:14.744Z,-23501.94
2022-10-10T04:06:17.346Z,-23500.81
2022-10-10T04:08:20.621Z,-23501.63
2022-10-10T04:10:24.651Z,-23499.06
2022-10-10T04:12:27.294Z,-23501.28
2022-10-10T04:14:29.912Z,-23497.34
2022-10-10T04:16:32.631Z,-23496.72
2022-10-10T04:18:35.314Z,-23497.34
2022-10-10T04:20:38.079Z,-23496.22
2022-10-10T04:22:40.833Z,-23496.38
2022-10-10T04:24:44.103Z,-23497.03
2022-10-10T04:26:48.091Z,-23498.44
2022-10-10T04:28:51.031Z,-23497.97
2022-10-10T04:30:56.198Z,-23499.88
2022-10-10T04:32:59.416Z,-23498.75
2022-10-10T04:35:02.077Z,-23504.78
2022-10-10T04:37:04.688Z,-23500.50
2022-10-10T04:39:07.279Z,-23502.41
2022-10-10T04:41:09.904Z,-23499.72
2022-10-10T04:43:14.290Z,-23498.28
2022-10-10T04:45:17.030Z,-23500.50
2022-10-10T04:47:19.784Z,-23500.19
2022-10-10T04:49:23.105Z,-23504.00
2022-10-10T04:51:25.779Z,-23505.09
2022-10-10T04:53:28.750Z,-23506.69
2022-10-10T04:55:31.368Z,-23507.63
2022-10-10T04:57:33.983Z,-23505.56
2022-10-10T04:59:37.923Z,-23504.31
2022-10-10T05:01:40.642Z,-23505.56
2022-10-10T05:03:43.407Z,-23506.22
2022-10-10T05:05:45.998Z,-23507.94
2022-10-10T05:07:51.855Z,-23511.59
2022-10-10T05:09:57.986Z,-23509.06
2022-10-10T05:12:00.698Z,-23508.44
2022-10-10T05:14:04.102Z,-23507.63
2022-10-10T05:16:08.231Z,-23507.16
2022-10-10T05:18:10.883Z,-23504.94
2022-10-10T05:20:13.535Z,-23506.38
2022-10-10T05:22:16.396Z,-23509.38
2022-10-10T05:24:18.980Z,-23506.53
2022-10-10T05:26:21.685Z,-23506.84
2022-10-10T05:28:24.381Z,-23509.06
2022-10-10T05:30:27.007Z,-23505.91
2022-10-10T05:32:30.985Z,-23513.03
2022-10-10T05:34:33.599Z,-23510.66
2022-10-10T05:36:36.184Z,-23509.22
2022-10-10T05:38:39.245Z,-23507.63
2022-10-10T05:40:42.307Z,-23505.25
2022-10-10T05:42:44.937Z,-23501.47
2022-10-10T05:44:47.496Z,-23507.16
2022-10-10T05:46:50.116Z,-23503.34
2022-10-10T05:48:55.071Z,-23504.47
2022-10-10T05:50:59.177Z,-23506.22
2022-10-10T05:53:01.869Z,-23507.16
2022-10-10T05:55:04.721Z,-23505.91
2022-10-10T05:57:07.304Z,-23501.13
2022-10-10T05:59:10.005Z,-23499.41
2022-10-10T06:01:13.204Z,-23495.59
2022-10-10T06:03:17.216Z,-23495.91
2022-10-10T06:05:21.274Z,-23496.53
2022-10-10T06:07:23.878Z,-23497.03
2022-10-10T06:09:26.614Z,-23501.47
2022-10-10T06:11:29.240Z,-23502.41
2022-10-10T06:13:32.010Z,-23504.78
2022-10-10T06:15:34.637Z,-23507.63
2022-10-10T06:17:37.236Z,-23507.16
2022-10-10T06:19:39.817Z,-23510.66
2022-10-10T06:21:43.816Z,-23509.38
2022-10-10T06:23:46.725Z,-23511.91
2022-10-10T06:25:53.130Z,-23511.28
2022-10-10T06:27:55.736Z,-23511.91
2022-10-10T06:29:58.339Z,-23513.19
2022-10-10T06:32:00.971Z,-23515.88
2022-10-10T06:34:03.674Z,-23518.41
2022-10-10T06:36:08.309Z,-23517.13
2022-10-10T06:38:12.679Z,-23523.00
2022-10-10T06:40:15.342Z,-23526.16
2022-10-10T06:42:17.921Z,-23530.75
2022-10-10T06:44:20.610Z,-23530.44
2022-10-10T06:46:23.271Z,-23535.81
2022-10-10T06:48:26.329Z,-23540.56
2022-10-10T06:50:28.933Z,-23536.13
2022-10-10T06:52:31.573Z,-23533.13
2022-10-10T06:54:36.285Z,-23527.59
2022-10-10T06:56:39.020Z,-23529.97
2022-10-10T06:58:41.710Z,-23532.50
2022-10-10T07:00:49.953Z,-23534.38
2022-10-10T07:02:53.078Z,-23551.81
2022-10-10T07:04:55.927Z,-23551.66
2022-10-10T07:06:58.564Z,-23545.31
2022-10-10T07:09:01.234Z,-23553.69
2022-10-10T07:11:06.181Z,-23555.13
2022-10-10T07:13:08.826Z,-23542.31
2022-10-10T07:15:11.720Z,-23537.72
2022-10-10T07:17:14.409Z,-23543.09
2022-10-10T07:19:17.032Z,-23543.41
2022-10-10T07:21:19.880Z,-23547.06
2022-10-10T07:23:22.533Z,-23544.22
2022-10-10T07:25:25.492Z,-23539.94
2022-10-10T07:27:29.498Z,-23542.78
2022-10-10T07:29:32.110Z,-23549.28
2022-10-10T07:31:34.822Z,-23550.84
2022-10-10T07:33:39.250Z,-23552.75
2022-10-10T07:35:42.101Z,-23553.69
2022-10-10T07:37:45.050Z,-23551.47
2022-10-10T07:39:47.708Z,-23558.13
2022-10-10T07:41:50.823Z,-23554.97
2022-10-10T07:43:57.016Z,-23553.22
2022-10-10T07:48:03.224Z,-23552.59
2022-10-10T07:50:07.680Z,-23553.06
2022-10-10T07:52:10.307Z,-23553.69
2022-10-10T07:54:12.963Z,-23551.66
2022-10-10T07:56:15.600Z,-23555.44
2022-10-10T07:58:18.299Z,-23557.81
2022-10-10T08:00:22.650Z,-23563.34
2022-10-10T08:02:25.260Z,-23563.97
2022-10-10T08:04:27.959Z,-23567.47
2022-10-10T08:06:30.613Z,-23572.84
2022-10-10T08:08:34.599Z,-23574.25
2022-10-10T08:10:39.177Z,-23576.16
2022-10-10T08:12:41.821Z,-23575.22
2022-10-10T08:14:44.664Z,-23575.69
2022-10-10T08:16:48.698Z,-23575.22
2022-10-10T08:18:51.405Z,-23582.63
2022-10-10T08:20:59.829Z,-23584.69
2022-10-10T08:23:02.455Z,-23591.50
2022-10-10T08:25:05.635Z,-23583.44
2022-10-10T08:27:08.234Z,-23588.31
2022-10-10T08:29:10.876Z,-23595.13
2022-10-10T08:31:15.617Z,-23601.75
2022-10-10T08:33:19.630Z,-23596.88
2022-10-10T08:35:22.329Z,-23597.34
2022-10-10T08:37:30.269Z,-23607.44
2022-10-10T08:39:35.321Z,-23598.59
2022-10-10T08:41:43.631Z,-23596.88
2022-10-10T08:43:50.755Z,-23597.34
2022-10-10T08:45:56.477Z,-23604.13
2022-10-10T08:48:02.557Z,-23607.28
2022-10-10T08:50:15.143Z,-23609.19
2022-10-10T08:52:28.880Z,-23612.50
2022-10-10T08:54:34.183Z,-23609.97
2022-10-10T08:56:38.884Z,-23615.97
2022-10-10T08:58:45.474Z,-23619.59
2022-10-10T09:00:48.966Z,-23620.09
2022-10-10T09:02:57.079Z,-23624.19
2022-10-10T09:05:00.003Z,-23647.06
2022-10-10T09:07:18.622Z,-23647.84
2022-10-10T09:09:32.043Z,-23643.75
2022-10-10T09:11:49.774Z,-23651.31
2022-10-10T09:14:05.544Z,-23663.31
2022-10-10T09:16:18.647Z,-23653.53
2022-10-10T09:18:32.601Z,-23676.06
2022-10-10T09:20:48.150Z,-23664.88
2022-10-10T09:22:55.704Z,-23673.09
2022-10-10T09:25:04.159Z,-23679.69
2022-10-10T09:27:13.091Z,-23687.72
2022-10-10T09:29:28.872Z,-23672.59
2022-10-10T09:31:37.098Z,-23687.56
2022-10-10T09:33:45.064Z,-23675.44
2022-10-10T09:35:49.446Z,-23675.59
2022-10-10T09:38:00.255Z,-23695.16
2022-10-10T09:40:12.562Z,-23700.19
2022-10-10T09:42:18.808Z,-23723.31
2022-10-10T09:44:23.251Z,-23764.84
2022-10-10T09:46:26.369Z,-23770.00
2022-10-10T09:48:32.443Z,-23773.78
2022-10-10T09:50:36.010Z,-23759.50
2022-10-10T09:52:40.189Z,-23800.63
2022-10-10T09:54:44.560Z,-23774.41
2022-10-10T09:56:51.593Z,-23736.69
2022-10-10T09:58:56.412Z,-23741.88
2022-10-10T10:01:14.070Z,-23744.25
2022-10-10T10:03:19.179Z,-23731.97
2022-10-10T10:05:27.616Z,-23716.41
2022-10-10T10:07:32.247Z,-23736.22
2022-10-10T10:09:35.434Z,-23738.25
2022-10-10T10:11:40.281Z,-23749.59
2022-10-10T10:13:43.078Z,-23737.31
2022-10-10T10:15:49.902Z,-23730.41
2022-10-10T10:18:10.699Z,-23740.63
2022-10-10T10:20:33.478Z,-23755.88
2022-10-10T10:22:39.155Z,-23780.69
2022-10-10T10:24:41.936Z,-23766.09
2022-10-10T10:26:47.941Z,-23779.13
2022-10-10T10:28:52.889Z,-23792.16
2022-10-10T10:30:57.634Z,-23819.47
2022-10-10T10:33:07.396Z,-23812.56
2022-10-10T10:35:24.070Z,-23796.56
2022-10-10T10:37:35.096Z,-23784.16
2022-10-10T10:39:51.344Z,-23792.00
2022-10-10T10:42:01.119Z,-23787.91
2022-10-10T10:44:28.201Z,-23774.72
2022-10-10T10:46:45.184Z,-23782.28
2022-10-10T10:48:57.054Z,-23772.38
2022-10-10T10:51:08.967Z,-23778.19
2022-10-10T10:53:19.703Z,-23789.19
2022-10-10T10:55:39.879Z,-23773.16
2022-10-10T10:58:22.480Z,-23781.34
2022-10-10T11:01:17.232Z,-23777.41
2022-10-10T11:03:14.976Z,-23779.13
2022-10-10T11:05:41.401Z,-23770.34
2022-10-10T11:07:54.430Z,-23770.00
2022-10-10T11:10:02.727Z,-23769.38
2022-10-10T11:12:16.866Z,-23770.81
2022-10-10T11:14:36.739Z,-23765.94
2022-10-10T11:16:49.344Z,-23766.56
2022-10-10T11:18:57.803Z,-23760.28
2022-10-10T11:21:05.108Z,-23754.63
2022-10-10T11:23:13.599Z,-23756.81
2022-10-10T11:25:24.222Z,-23761.38
2022-10-10T11:27:33.867Z,-23765.00
2022-10-10T11:29:49.414Z,-23757.91
2022-10-10T11:31:56.271Z,-23766.41
2022-10-10T11:34:01.957Z,-23774.41
2022-10-10T11:36:07.609Z,-23780.06
2022-10-10T11:38:19.656Z,-23777.56
2022-10-10T11:40:35.993Z,-23788.88
2022-10-10T11:42:46.569Z,-23784.78
2022-10-10T11:44:55.976Z,-23792.94
2022-10-10T11:47:04.439Z,-23794.19
2022-10-10T11:49:15.555Z,-23801.28
2022-10-10T11:51:28.827Z,-23792.94
2022-10-10T11:53:37.315Z,-23804.56
2022-10-10T11:55:46.416Z,-23800.94
2022-10-10T11:57:54.556Z,-23802.53
2022-10-10T12:00:03.202Z,-23819.63
2022-10-10T12:02:18.868Z,-23815.22
2022-10-10T12:04:23.167Z,-23835.16
2022-10-10T12:06:33.359Z,-23849.41
2022-10-10T12:08:40.918Z,-23817.75
2022-10-10T12:10:49.515Z,-23840.78
2022-10-10T12:12:55.160Z,-23832.66
2022-10-10T12:15:03.284Z,-23850.03
2022-10-10T12:17:06.150Z,-23846.91
2022-10-10T12:19:17.581Z,-23827.47
2022-10-10T12:21:23.955Z,-23850.81
2022-10-10T12:23:30.697Z,-23823.06
2022-10-10T12:25:42.080Z,-23848.78
2022-10-10T12:27:46.445Z,-23853.94
2022-10-10T12:30:10.366Z,-23883.84
2022-10-10T12:32:27.597Z,-23864.59
2022-10-10T12:34:44.301Z,-23870.41
2022-10-10T12:37:12.487Z,-23856.63
2022-10-10T12:39:38.964Z,-23887.94
2022-10-10T12:41:56.008Z,-23856.94
2022-10-10T12:44:21.654Z,-23898.25
2022-10-10T12:46:28.177Z,-23900.44
2022-10-10T12:48:32.701Z,-23929.50
2022-10-10T12:50:38.090Z,-23894.19
2022-10-10T12:52:49.860Z,-23873.22
2022-10-10T12:54:53.761Z,-23898.56
2022-10-10T12:57:08.202Z,-23888.72
2022-10-10T12:59:20.871Z,-23885.28
2022-10-10T13:01:26.910Z,-23911.38
2022-10-10T13:03:35.625Z,-23921.06
2022-10-10T13:05:41.820Z,-23912.94
2022-10-10T13:07:45.896Z,-23898.25
2022-10-10T13:09:51.313Z,-23901.84
2022-10-10T13:11:57.155Z,-23861.47
2022-10-10T13:13:59.777Z,-23897.47
2022-10-10T13:16:09.216Z,-23892.00
2022-10-10T13:18:11.870Z,-23876.81
2022-10-10T13:20:29.504Z,-23875.88
2022-10-10T13:22:34.421Z,-23875.72
2022-10-10T13:24:38.042Z,-23898.25
2022-10-10T13:26:46.398Z,-23904.66
2022-10-10T13:28:49.824Z,-23890.59
2022-10-10T13:30:52.869Z,-23876.81
2022-10-10T13:32:57.200Z,-23853.16
2022-10-10T13:35:02.287Z,-23855.84
2022-10-10T13:37:07.698Z,-23832.81
2022-10-10T13:39:16.567Z,-23832.16
2022-10-10T13:41:20.253Z,-23833.13
2022-10-10T13:43:23.420Z,-23818.38
2022-10-10T13:45:45.354Z,-23813.19
2022-10-10T13:47:54.446Z,-23807.53
2022-10-10T13:49:58.218Z,-23804.88
2022-10-10T13:52:03.851Z,-23797.34
2022-10-10T13:54:44.501Z,-23809.91
2022-10-10T13:56:47.190Z,-23823.22
2022-10-10T13:58:51.870Z,-23815.22
2022-10-10T14:00:59.874Z,-23822.44
2022-10-10T14:03:02.832Z,-23813.97
2022-10-10T14:05:07.616Z,-23830.91
2022-10-10T14:07:14.770Z,-23826.53
2022-10-10T14:09:23.687Z,-23818.53
2022-10-10T14:11:29.254Z,-23817.13
2022-10-10T14:13:34.342Z,-23819.94
2022-10-10T14:15:45.044Z,-23827.31
2022-10-10T14:17:47.661Z,-23815.53
2022-10-10T14:19:50.726Z,-23819.63
2022-10-10T14:21:53.399Z,-23816.81
2022-10-10T14:23:56.003Z,-23809.91
2022-10-10T14:25:58.881Z,-23803.63
2022-10-10T14:28:02.861Z,-23800.00
2022-10-10T14:30:06.946Z,-23798.75
2022-10-10T14:32:10.856Z,-23799.84
2022-10-10T14:34:14.658Z,-23799.22
2022-10-10T14:36:17.399Z,-23804.72
2022-10-10T14:38:20.421Z,-23793.56
2022-10-10T14:40:23.879Z,-23797.03
2022-10-10T14:42:27.518Z,-23795.00
2022-10-10T14:44:32.785Z,-23795.16
2022-10-10T14:46:35.834Z,-23798.28
2022-10-10T14:48:38.479Z,-23793.88
2022-10-10T14:50:44.376Z,-23787.63
2022-10-10T14:52:47.193Z,-23789.03
2022-10-10T14:54:49.891Z,-23792.31
2022-10-10T14:57:08.813Z,-23788.88
2022-10-10T14:59:17.750Z,-23786.97
2022-10-10T15:01:41.743Z,-23784.78
2022-10-10T15:03:44.334Z,-23778.97
2022-10-10T15:05:48.291Z,-23777.88
2022-10-10T15:07:53.642Z,-23780.38
2022-10-10T15:10:50.637Z,-23781.34
2022-10-10T15:12:19.207Z,-23781.19
2022-10-10T15:14:21.812Z,-23779.13
2022-10-10T15:16:24.825Z,-23775.34
2022-10-10T15:18:53.262Z,-23775.03
2022-10-10T15:20:51.476Z,-23775.03
2022-10-10T15:22:54.714Z,-23773.78
2022-10-10T15:24:57.369Z,-23779.91
2022-10-10T15:27:00.041Z,-23778.50
2022-10-10T15:29:02.748Z,-23777.09
2022-10-10T15:31:06.076Z,-23779.75
2022-10-10T15:33:08.898Z,-23786.66
2022-10-10T15:35:15.827Z,-23783.53
2022-10-10T15:37:18.782Z,-23783.22
2022-10-10T15:39:21.450Z,-23779.13
2022-10-10T15:41:24.201Z,-23779.44
2022-10-10T15:43:27.039Z,-23776.00
2022-10-10T15:45:55.126Z,-23780.69
2022-10-10T15:47:52.445Z,-23778.81
2022-10-10T15:49:55.084Z,-23772.38
2022-10-10T15:51:59.137Z,-23764.50
2022-10-10T15:54:02.205Z,-23762.63
2022-10-10T15:56:10.193Z,-23764.50
2022-10-10T15:58:13.802Z,-23762.47
2022-10-10T16:00:17.331Z,-23759.66
2022-10-10T16:02:19.954Z,-23758.72
2022-10-10T16:04:22.997Z,-23753.69
2022-10-10T16:06:26.790Z,-23755.56
2022-10-10T16:08:30.803Z,-23759.50
2022-10-10T16:10:38.462Z,-23759.66
2022-10-10T16:12:41.295Z,-23758.06
2022-10-10T16:14:43.952Z,-23756.19
2022-10-10T16:16:46.555Z,-23757.91
2022-10-10T16:18:49.317Z,-23754.31
2022-10-10T16:20:52.076Z,-23735.91
2022-10-10T16:22:54.725Z,-23743.91
2022-10-10T16:25:20.809Z,-23734.66
2022-10-10T16:27:25.718Z,-23726.94
2022-10-10T16:29:31.082Z,-23723.78
2022-10-10T16:31:35.150Z,-23718.75
2022-10-10T16:33:39.453Z,-23717.66
2022-10-10T16:35:42.078Z,-23715.75
2022-10-10T16:37:44.760Z,-23712.94
2022-10-10T16:39:47.378Z,-23706.78
2022-10-10T16:41:51.355Z,-23707.41
2022-10-10T16:43:54.092Z,-23706.63
2022-10-10T16:45:56.738Z,-23702.84
2022-10-10T16:47:59.424Z,-23705.84
2022-10-10T16:50:02.408Z,-23703.97
2022-10-10T16:52:05.228Z,-23703.34
2022-10-10T16:54:07.887Z,-23702.38
2022-10-10T16:56:13.937Z,-23698.91
2022-10-10T16:58:17.907Z,-23697.03
2022-10-10T17:00:20.618Z,-23693.88
2022-10-10T17:02:24.424Z,-23691.06
2022-10-10T17:04:27.152Z,-23687.88
2022-10-10T17:06:35.398Z,-23686.94
2022-10-10T17:08:38.197Z,-23687.88
2022-10-10T17:10:41.407Z,-23688.53
2022-10-10T17:12:44.052Z,-23688.53
2022-10-10T17:14:48.076Z,-23689.94
2022-10-10T17:17:10.978Z,-23691.06
2022-10-10T17:19:13.349Z,-23693.25
2022-10-10T17:21:18.408Z,-23691.53
2022-10-10T17:23:21.088Z,-23683.78
2022-10-10T17:25:23.745Z,-23682.22
2022-10-10T17:27:26.465Z,-23681.44
2022-10-10T17:29:29.083Z,-23677.66
2022-10-10T17:31:33.570Z,-23678.75
2022-10-10T17:33:37.255Z,-23675.28
2022-10-10T17:35:43.382Z,-23677.50
2022-10-10T17:37:46.045Z,-23673.41
2022-10-10T17:39:48.926Z,-23669.63
2022-10-10T17:41:51.773Z,-23669.28
2022-10-10T17:43:54.568Z,-23671.66
2022-10-10T17:46:21.592Z,-23672.13
2022-10-10T17:48:25.189Z,-23669.63
2022-10-10T17:50:27.888Z,-23672.59
2022-10-10T17:52:30.559Z,-23673.09
2022-10-10T17:54:33.184Z,-23680.31
2022-10-10T17:56:36.114Z,-23679.84
2022-10-10T17:58:38.816Z,-23680.66
2022-10-10T18:00:42.266Z,-23681.13
2022-10-10T18:02:44.906Z,-23686.63
2022-10-10T18:04:48.931Z,-23681.44
2022-10-10T18:06:51.532Z,-23680.78
2022-10-10T18:08:55.058Z,-23678.91
2022-10-10T18:10:57.675Z,-23680.47
2022-10-10T18:13:01.824Z,-23681.44
2022-10-10T18:15:04.930Z,-23682.53
2022-10-10T18:17:07.599Z,-23682.53
2022-10-10T18:19:11.422Z,-23685.06
2022-10-10T18:21:16.217Z,-23694.03
2022-10-10T18:23:19.351Z,-23700.19
2022-10-10T18:25:25.057Z,-23694.34
2022-10-10T18:27:29.820Z,-23691.06
2022-10-10T18:29:32.508Z,-23686.00
2022-10-10T18:31:38.079Z,-23688.69
2022-10-10T18:33:40.880Z,-23680.00
2022-10-10T18:35:43.529Z,-23672.75
2022-10-10T18:37:47.508Z,-23667.88
2022-10-10T18:39:50.333Z,-23663.63
2022-10-10T18:41:52.910Z,-23656.69
2022-10-10T18:43:57.234Z,-23656.84
2022-10-10T18:46:00.502Z,-23645.47
2022-10-10T18:48:03.149Z,-23643.28
2022-10-10T18:50:06.470Z,-23643.91
2022-10-10T18:52:10.081Z,-23647.53
2022-10-10T18:54:16.310Z,-23645.66
2022-10-10T18:56:24.316Z,-23637.13
2022-10-10T18:58:27.570Z,-23648.16
2022-10-10T19:00:30.204Z,-23649.13
2022-10-10T19:02:32.849Z,-23646.91
2022-10-10T19:04:35.460Z,-23648.63
2022-10-10T19:06:40.345Z,-23643.75
2022-10-10T19:08:43.751Z,-23642.81
2022-10-10T19:10:49.080Z,-23641.22
2022-10-10T19:12:51.762Z,-23642.47
2022-10-10T19:14:54.426Z,-23640.28
2022-10-10T19:16:57.054Z,-23633.97
2022-10-10T19:19:00.779Z,-23632.88
2022-10-10T19:21:05.945Z,-23635.53
2022-10-10T19:23:08.828Z,-23629.72
2022-10-10T19:25:11.468Z,-23631.75
2022-10-10T19:27:15.457Z,-23630.81
2022-10-10T19:29:18.054Z,-23629.25
2022-10-10T19:31:21.214Z,-23631.13
2022-10-10T19:33:23.879Z,-23631.59
2022-10-10T19:35:26.637Z,-23631.75
2022-10-10T19:37:29.268Z,-23631.13
2022-10-10T19:39:31.881Z,-23634.28
2022-10-10T19:41:34.846Z,-23633.03
2022-10-10T19:43:38.792Z,-23631.13
2022-10-10T19:45:41.816Z,-23630.03
2022-10-10T19:47:44.456Z,-23623.88
2022-10-10T19:49:47.158Z,-23628.28
2022-10-10T19:51:49.778Z,-23634.75
2022-10-10T19:53:52.570Z,-23637.13
2022-10-10T19:55:58.915Z,-23640.91
2022-10-10T19:58:01.569Z,-23640.28
2022-10-10T20:00:07.017Z,-23638.69
2022-10-10T20:02:11.364Z,-23635.88
2022-10-10T20:04:14.074Z,-23633.66
2022-10-10T20:06:17.725Z,-23632.22
2022-10-10T20:08:21.099Z,-23624.50
2022-10-10T20:10:24.231Z,-23624.50
2022-10-10T20:12:26.876Z,-23622.59
2022-10-10T20:14:29.455Z,-23619.75
2022-10-10T20:16:33.724Z,-23619.13
2022-10-10T20:18:39.540Z,-23619.44
2022-10-10T20:20:42.513Z,-23620.72
2022-10-10T20:22:45.422Z,-23618.81
2022-10-10T20:24:48.057Z,-23613.13
2022-10-10T20:26:50.659Z,-23613.13
2022-10-10T20:28:54.022Z,-23615.66
2022-10-10T20:30:56.672Z,-23616.13
2022-10-10T20:33:00.739Z,-23618.03
2022-10-10T20:35:03.388Z,-23617.88
2022-10-10T20:37:06.037Z,-23622.91
2022-10-10T20:39:12.564Z,-23621.03
2022-10-10T20:41:14.994Z,-23621.03
2022-10-10T20:43:17.613Z,-23618.81
2022-10-10T20:45:20.251Z,-23616.91
2022-10-10T20:47:23.412Z,-23615.66
2022-10-10T20:49:27.415Z,-23619.13
2022-10-10T20:51:30.459Z,-23618.03
2022-10-10T20:53:33.522Z,-23615.66
2022-10-10T20:55:36.126Z,-23618.81
2022-10-10T20:57:38.749Z,-23615.97
2022-10-10T20:59:41.397Z,-23619.59
2022-10-10T21:01:45.623Z,-23619.13
2022-10-10T21:03:49.041Z,-23620.41
2022-10-10T21:06:02.589Z,-23618.19
2022-10-10T21:08:05.524Z,-23620.41
2022-10-10T21:10:09.290Z,-23617.88
2022-10-10T21:12:11.870Z,-23623.06
2022-10-10T21:14:14.470Z,-23618.19
2022-10-10T21:16:18.480Z,-23618.50
2022-10-10T21:18:21.339Z,-23624.81
2022-10-10T21:20:23.935Z,-23617.88
2022-10-10T21:22:27.931Z,-23619.13
2022-10-10T21:24:30.569Z,-23620.25
2022-10-10T21:26:33.201Z,-23615.03
2022-10-10T21:28:36.775Z,-23616.91
2022-10-10T21:30:47.261Z,-23618.81
2022-10-10T21:32:49.868Z,-23613.13
2022-10-10T21:34:56.341Z,-23612.19
2022-10-10T21:36:59.202Z,-23611.72
2022-10-10T21:39:03.765Z,-23610.28
2022-10-10T21:41:07.713Z,-23611.38
2022-10-10T21:43:10.542Z,-23612.81
2022-10-10T21:45:13.202Z,-23612.50
2022-10-10T21:47:15.921Z,-23610.91
2022-10-10T21:49:18.617Z,-23609.81
2022-10-10T21:51:22.014Z,-23610.28
2022-10-10T21:53:24.687Z,-23607.13
2022-10-10T21:55:28.684Z,-23609.03
2022-10-10T21:57:31.276Z,-23610.28
2022-10-10T21:59:33.893Z,-23609.97
2022-10-10T22:01:37.536Z,-23609.97
2022-10-10T22:03:40.496Z,-23607.13
2022-10-10T22:05:44.685Z,-23608.06
2022-10-10T22:07:47.313Z,-23608.06
2022-10-10T22:09:50.239Z,-23609.19
2022-10-10T22:11:54.241Z,-23614.06
2022-10-10T22:13:58.210Z,-23610.59
2022-10-10T22:16:01.172Z,-23607.59
2022-10-10T22:18:04.079Z,-23606.50
2022-10-10T22:20:09.555Z,-23605.53
2022-10-10T22:22:12.150Z,-23606.19
2022-10-10T22:24:14.728Z,-23605.06
2022-10-10T22:26:17.901Z,-23605.38
2022-10-10T22:28:21.921Z,-23603.66
2022-10-10T22:30:24.545Z,-23604.28
2022-10-10T22:32:27.207Z,-23604.75
2022-10-10T22:34:29.796Z,-23606.19
2022-10-10T22:36:32.530Z,-23608.06
2022-10-10T22:38:38.160Z,-23613.75
2022-10-10T22:40:40.809Z,-23606.34
2022-10-10T22:42:43.457Z,-23607.13
2022-10-10T22:44:47.461Z,-23608.69
2022-10-10T22:46:50.039Z,-23607.44
2022-10-10T22:48:52.728Z,-23606.50
2022-10-10T22:51:03.228Z,-23606.34
2022-10-10T22:53:06.150Z,-23609.19
2022-10-10T22:55:13.238Z,-23609.97
2022-10-10T22:57:18.683Z,-23611.53
2022-10-10T22:59:21.354Z,-23612.50
2022-10-10T23:01:26.995Z,-23608.69
2022-10-10T23:03:29.716Z,-23606.03
2022-10-10T23:05:32.365Z,-23607.44
2022-10-10T23:07:35.005Z,-23610.13
2022-10-10T23:09:37.705Z,-23610.75
2022-10-10T23:11:40.490Z,-23610.59
2022-10-10T23:13:43.164Z,-23612.19
2022-10-10T23:15:45.752Z,-23615.03
2022-10-10T23:17:49.725Z,-23615.81
2022-10-10T23:19:52.329Z,-23615.66
2022-10-10T23:21:54.928Z,-23614.88
2022-10-10T23:23:57.642Z,-23614.72
2022-10-10T23:26:00.319Z,-23614.72
2022-10-10T23:28:02.900Z,-23613.75
2022-10-10T23:30:06.615Z,-23612.50
2022-10-10T23:32:09.193Z,-23611.88
2022-10-10T23:34:13.179Z,-23609.97
2022-10-10T23:36:16.296Z,-23610.91
2022-10-10T23:38:18.871Z,-23610.59
2022-10-10T23:40:21.509Z,-23610.91
2022-10-10T23:42:24.104Z,-23616.91
2022-10-10T23:44:26.778Z,-23607.13
2022-10-10T23:46:29.412Z,-23603.97
2022-10-10T23:48:32.005Z,-23605.38
2022-10-10T23:50:36.060Z,-23606.81
2022-10-10T23:52:38.781Z,-23606.19
2022-10-10T23:54:41.439Z,-23603.97